sensor_id;sensor_type;location;lat;lon;timestamp;P1;durP1;ratioP1;P2;durP2;ratioP2
19187;SDS011;9726;52.198;8.792;2023-03-01T00:00:20;21.10;;;10.60;;
19187;SDS011;9726;52.198;8.792;2023-03-01T00:02:48;20.03;;;10.67;;
19187;SDS011;9726;52.198;8.792;2023-03-01T00:05:15;17.67;;;9.60;;
19187;SDS011;9726;52.198;8.792;2023-03-01T00:07:42;18.87;;;9.43;;
19187;SDS011;9726;52.198;8.792;2023-03-01T00:10:10;15.50;;;9.50;;
19187;SDS011;9726;52.198;8.792;2023-03-01T00:17:24;24.77;;;11.00;;
19187;SDS011;9726;52.198;8.792;2023-03-01T00:19:52;24.67;;;11.90;;
19187;SDS011;9726;52.198;8.792;2023-03-01T00:22:19;20.87;;;11.60;;
19187;SDS011;9726;52.198;8.792;2023-03-01T00:24:47;18.67;;;10.23;;
19187;SDS011;9726;52.198;8.792;2023-03-01T00:27:14;23.43;;;12.47;;
19187;SDS011;9726;52.198;8.792;2023-03-01T00:29:41;29.53;;;13.07;;
19187;SDS011;9726;52.198;8.792;2023-03-01T00:32:09;34.03;;;14.53;;
19187;SDS011;9726;52.198;8.792;2023-03-01T00:34:36;25.93;;;13.57;;
19187;SDS011;9726;52.198;8.792;2023-03-01T00:37:03;33.90;;;13.37;;
19187;SDS011;9726;52.198;8.792;2023-03-01T00:39:31;20.93;;;11.50;;
19187;SDS011;9726;52.198;8.792;2023-03-01T00:41:59;22.13;;;12.30;;
19187;SDS011;9726;52.198;8.792;2023-03-01T00:44:27;30.37;;;12.40;;
19187;SDS011;9726;52.198;8.792;2023-03-01T00:46:55;20.10;;;10.80;;
19187;SDS011;9726;52.198;8.792;2023-03-01T00:49:22;23.63;;;11.43;;
19187;SDS011;9726;52.198;8.792;2023-03-01T00:51:50;25.57;;;12.83;;
19187;SDS011;9726;52.198;8.792;2023-03-01T00:54:17;27.10;;;12.30;;
19187;SDS011;9726;52.198;8.792;2023-03-01T00:56:46;24.77;;;13.07;;
19187;SDS011;9726;52.198;8.792;2023-03-01T00:59:13;19.57;;;11.23;;
19187;SDS011;9726;52.198;8.792;2023-03-01T01:01:41;29.77;;;11.27;;
19187;SDS011;9726;52.198;8.792;2023-03-01T01:04:10;22.80;;;11.67;;
19187;SDS011;9726;52.198;8.792;2023-03-01T01:06:39;19.87;;;10.80;;
19187;SDS011;9726;52.198;8.792;2023-03-01T01:09:09;22.33;;;10.83;;
19187;SDS011;9726;52.198;8.792;2023-03-01T01:11:46;19.50;;;10.93;;
19187;SDS011;9726;52.198;8.792;2023-03-01T01:14:13;17.80;;;10.37;;
19187;SDS011;9726;52.198;8.792;2023-03-01T01:16:41;21.70;;;10.60;;
19187;SDS011;9726;52.198;8.792;2023-03-01T01:19:09;22.73;;;11.90;;
19187;SDS011;9726;52.198;8.792;2023-03-01T01:21:37;26.93;;;13.07;;
19187;SDS011;9726;52.198;8.792;2023-03-01T01:24:05;20.67;;;11.30;;
19187;SDS011;9726;52.198;8.792;2023-03-01T01:26:33;24.73;;;11.20;;
19187;SDS011;9726;52.198;8.792;2023-03-01T01:29:01;23.93;;;11.93;;
19187;SDS011;9726;52.198;8.792;2023-03-01T01:31:29;24.93;;;13.13;;
19187;SDS011;9726;52.198;8.792;2023-03-01T01:33:58;22.13;;;11.10;;
19187;SDS011;9726;52.198;8.792;2023-03-01T01:36:26;31.20;;;13.43;;
19187;SDS011;9726;52.198;8.792;2023-03-01T01:38:54;24.33;;;12.40;;
19187;SDS011;9726;52.198;8.792;2023-03-01T01:41:22;25.17;;;12.50;;
19187;SDS011;9726;52.198;8.792;2023-03-01T01:46:39;23.63;;;12.33;;
19187;SDS011;9726;52.198;8.792;2023-03-01T01:49:16;26.37;;;12.13;;
19187;SDS011;9726;52.198;8.792;2023-03-01T01:51:45;30.80;;;12.37;;
19187;SDS011;9726;52.198;8.792;2023-03-01T01:54:16;26.77;;;13.73;;
19187;SDS011;9726;52.198;8.792;2023-03-01T01:56:55;37.20;;;11.13;;
19187;SDS011;9726;52.198;8.792;2023-03-01T01:59:24;22.23;;;11.47;;
19187;SDS011;9726;52.198;8.792;2023-03-01T02:01:52;25.00;;;12.20;;
19187;SDS011;9726;52.198;8.792;2023-03-01T02:04:20;20.37;;;12.80;;
19187;SDS011;9726;52.198;8.792;2023-03-01T02:06:49;32.57;;;13.43;;
19187;SDS011;9726;52.198;8.792;2023-03-01T02:09:19;25.03;;;12.90;;
19187;SDS011;9726;52.198;8.792;2023-03-01T02:11:47;26.30;;;13.03;;
19187;SDS011;9726;52.198;8.792;2023-03-01T02:14:15;23.80;;;11.60;;
19187;SDS011;9726;52.198;8.792;2023-03-01T02:16:42;21.63;;;10.90;;
19187;SDS011;9726;52.198;8.792;2023-03-01T02:19:13;21.80;;;11.30;;
19187;SDS011;9726;52.198;8.792;2023-03-01T02:24:21;23.77;;;12.13;;
19187;SDS011;9726;52.198;8.792;2023-03-01T02:26:54;25.53;;;12.33;;
19187;SDS011;9726;52.198;8.792;2023-03-01T02:29:25;19.83;;;11.60;;
19187;SDS011;9726;52.198;8.792;2023-03-01T02:31:53;21.20;;;11.23;;
19187;SDS011;9726;52.198;8.792;2023-03-01T02:34:25;22.70;;;10.73;;
19187;SDS011;9726;52.198;8.792;2023-03-01T02:36:57;20.23;;;10.50;;
19187;SDS011;9726;52.198;8.792;2023-03-01T02:39:28;20.57;;;10.83;;
19187;SDS011;9726;52.198;8.792;2023-03-01T02:41:58;26.77;;;11.23;;
19187;SDS011;9726;52.198;8.792;2023-03-01T02:44:26;23.33;;;11.97;;
19187;SDS011;9726;52.198;8.792;2023-03-01T02:46:55;20.73;;;10.77;;
19187;SDS011;9726;52.198;8.792;2023-03-01T02:49:25;23.73;;;11.47;;
19187;SDS011;9726;52.198;8.792;2023-03-01T02:54:41;20.60;;;10.23;;
19187;SDS011;9726;52.198;8.792;2023-03-01T02:57:10;25.90;;;11.03;;
19187;SDS011;9726;52.198;8.792;2023-03-01T02:59:38;27.00;;;11.80;;
19187;SDS011;9726;52.198;8.792;2023-03-01T03:04:48;21.40;;;10.70;;
19187;SDS011;9726;52.198;8.792;2023-03-01T03:07:15;24.83;;;10.33;;
19187;SDS011;9726;52.198;8.792;2023-03-01T03:09:43;21.23;;;11.13;;
19187;SDS011;9726;52.198;8.792;2023-03-01T03:12:11;21.43;;;11.20;;
19187;SDS011;9726;52.198;8.792;2023-03-01T03:14:39;23.60;;;10.93;;
19187;SDS011;9726;52.198;8.792;2023-03-01T03:17:06;22.13;;;11.57;;
19187;SDS011;9726;52.198;8.792;2023-03-01T03:19:34;22.80;;;10.93;;
19187;SDS011;9726;52.198;8.792;2023-03-01T03:22:01;22.57;;;10.53;;
19187;SDS011;9726;52.198;8.792;2023-03-01T03:24:28;18.63;;;9.70;;
19187;SDS011;9726;52.198;8.792;2023-03-01T03:27:04;24.97;;;10.53;;
19187;SDS011;9726;52.198;8.792;2023-03-01T03:29:32;23.00;;;11.37;;
19187;SDS011;9726;52.198;8.792;2023-03-01T03:32:00;21.50;;;10.43;;
19187;SDS011;9726;52.198;8.792;2023-03-01T03:34:27;22.40;;;11.00;;
19187;SDS011;9726;52.198;8.792;2023-03-01T03:36:55;25.13;;;11.37;;
19187;SDS011;9726;52.198;8.792;2023-03-01T03:39:26;27.20;;;9.93;;
19187;SDS011;9726;52.198;8.792;2023-03-01T03:41:54;18.60;;;9.40;;
19187;SDS011;9726;52.198;8.792;2023-03-01T03:44:22;19.53;;;9.97;;
19187;SDS011;9726;52.198;8.792;2023-03-01T03:46:49;25.77;;;11.40;;
19187;SDS011;9726;52.198;8.792;2023-03-01T03:49:16;19.17;;;10.30;;
19187;SDS011;9726;52.198;8.792;2023-03-01T03:51:45;23.63;;;11.20;;
19187;SDS011;9726;52.198;8.792;2023-03-01T03:54:12;21.70;;;11.00;;
19187;SDS011;9726;52.198;8.792;2023-03-01T03:56:40;23.70;;;11.27;;
19187;SDS011;9726;52.198;8.792;2023-03-01T03:59:07;20.77;;;12.53;;
19187;SDS011;9726;52.198;8.792;2023-03-01T04:01:37;20.40;;;10.07;;
19187;SDS011;9726;52.198;8.792;2023-03-01T04:04:05;24.07;;;10.57;;
19187;SDS011;9726;52.198;8.792;2023-03-01T04:06:34;21.53;;;11.30;;
19187;SDS011;9726;52.198;8.792;2023-03-01T04:09:01;18.60;;;9.73;;
19187;SDS011;9726;52.198;8.792;2023-03-01T04:11:28;27.17;;;10.80;;
19187;SDS011;9726;52.198;8.792;2023-03-01T04:13:56;19.77;;;11.20;;
19187;SDS011;9726;52.198;8.792;2023-03-01T04:16:25;20.37;;;10.97;;
19187;SDS011;9726;52.198;8.792;2023-03-01T04:18:52;22.20;;;11.73;;
19187;SDS011;9726;52.198;8.792;2023-03-01T04:21:20;26.33;;;11.23;;
19187;SDS011;9726;52.198;8.792;2023-03-01T04:23:47;28.37;;;11.67;;
19187;SDS011;9726;52.198;8.792;2023-03-01T04:26:19;24.63;;;11.83;;
19187;SDS011;9726;52.198;8.792;2023-03-01T04:28:47;24.13;;;11.40;;
19187;SDS011;9726;52.198;8.792;2023-03-01T04:31:16;22.03;;;10.50;;
19187;SDS011;9726;52.198;8.792;2023-03-01T04:33:45;24.93;;;11.80;;
19187;SDS011;9726;52.198;8.792;2023-03-01T04:36:14;24.73;;;12.40;;
19187;SDS011;9726;52.198;8.792;2023-03-01T04:38:42;31.50;;;12.27;;
19187;SDS011;9726;52.198;8.792;2023-03-01T04:41:14;24.80;;;10.87;;
19187;SDS011;9726;52.198;8.792;2023-03-01T04:43:42;22.40;;;11.43;;
19187;SDS011;9726;52.198;8.792;2023-03-01T04:46:13;25.20;;;12.07;;
19187;SDS011;9726;52.198;8.792;2023-03-01T04:48:41;19.83;;;11.27;;
19187;SDS011;9726;52.198;8.792;2023-03-01T04:51:09;30.07;;;12.90;;
19187;SDS011;9726;52.198;8.792;2023-03-01T04:53:40;20.90;;;11.73;;
19187;SDS011;9726;52.198;8.792;2023-03-01T04:56:07;27.27;;;12.40;;
19187;SDS011;9726;52.198;8.792;2023-03-01T04:58:35;21.77;;;10.90;;
19187;SDS011;9726;52.198;8.792;2023-03-01T05:01:08;18.63;;;11.50;;
19187;SDS011;9726;52.198;8.792;2023-03-01T05:03:42;28.10;;;11.97;;
19187;SDS011;9726;52.198;8.792;2023-03-01T05:06:10;22.10;;;12.10;;
19187;SDS011;9726;52.198;8.792;2023-03-01T05:08:38;34.47;;;11.60;;
19187;SDS011;9726;52.198;8.792;2023-03-01T05:11:05;27.37;;;12.77;;
19187;SDS011;9726;52.198;8.792;2023-03-01T05:13:35;21.43;;;10.97;;
19187;SDS011;9726;52.198;8.792;2023-03-01T05:16:03;27.87;;;12.30;;
19187;SDS011;9726;52.198;8.792;2023-03-01T05:18:32;20.07;;;10.57;;
19187;SDS011;9726;52.198;8.792;2023-03-01T05:21:02;26.03;;;12.10;;
19187;SDS011;9726;52.198;8.792;2023-03-01T05:23:31;25.08;;;12.70;;
19187;SDS011;9726;52.198;8.792;2023-03-01T05:25:58;25.43;;;12.27;;
19187;SDS011;9726;52.198;8.792;2023-03-01T05:28:27;19.87;;;11.10;;
19187;SDS011;9726;52.198;8.792;2023-03-01T05:30:55;19.53;;;10.67;;
19187;SDS011;9726;52.198;8.792;2023-03-01T05:33:23;18.63;;;10.80;;
19187;SDS011;9726;52.198;8.792;2023-03-01T05:35:50;21.13;;;10.77;;
19187;SDS011;9726;52.198;8.792;2023-03-01T05:38:19;27.73;;;11.50;;
19187;SDS011;9726;52.198;8.792;2023-03-01T05:40:48;19.83;;;11.23;;
19187;SDS011;9726;52.198;8.792;2023-03-01T05:43:15;25.43;;;11.67;;
19187;SDS011;9726;52.198;8.792;2023-03-01T05:45:44;32.07;;;12.03;;
19187;SDS011;9726;52.198;8.792;2023-03-01T05:48:12;30.73;;;15.00;;
19187;SDS011;9726;52.198;8.792;2023-03-01T05:50:41;21.67;;;11.70;;
19187;SDS011;9726;52.198;8.792;2023-03-01T05:53:10;19.43;;;11.17;;
19187;SDS011;9726;52.198;8.792;2023-03-01T05:55:38;21.70;;;10.40;;
19187;SDS011;9726;52.198;8.792;2023-03-01T05:58:07;18.83;;;10.37;;
19187;SDS011;9726;52.198;8.792;2023-03-01T06:00:36;29.07;;;12.03;;
19187;SDS011;9726;52.198;8.792;2023-03-01T06:03:03;17.97;;;10.77;;
19187;SDS011;9726;52.198;8.792;2023-03-01T06:05:31;27.43;;;12.90;;
19187;SDS011;9726;52.198;8.792;2023-03-01T06:07:59;21.20;;;11.27;;
19187;SDS011;9726;52.198;8.792;2023-03-01T06:10:27;21.13;;;10.97;;
19187;SDS011;9726;52.198;8.792;2023-03-01T06:12:54;23.63;;;11.03;;
19187;SDS011;9726;52.198;8.792;2023-03-01T06:15:22;25.87;;;13.90;;
19187;SDS011;9726;52.198;8.792;2023-03-01T06:17:49;29.87;;;13.77;;
19187;SDS011;9726;52.198;8.792;2023-03-01T06:20:18;21.37;;;11.70;;
19187;SDS011;9726;52.198;8.792;2023-03-01T06:22:46;20.40;;;11.07;;
19187;SDS011;9726;52.198;8.792;2023-03-01T06:25:16;17.83;;;10.27;;
19187;SDS011;9726;52.198;8.792;2023-03-01T06:27:44;25.27;;;11.00;;
19187;SDS011;9726;52.198;8.792;2023-03-01T06:30:13;20.37;;;10.80;;
19187;SDS011;9726;52.198;8.792;2023-03-01T06:32:40;18.83;;;9.40;;
19187;SDS011;9726;52.198;8.792;2023-03-01T06:35:10;23.43;;;11.47;;
19187;SDS011;9726;52.198;8.792;2023-03-01T06:37:37;25.70;;;11.37;;
19187;SDS011;9726;52.198;8.792;2023-03-01T06:40:05;24.33;;;12.87;;
19187;SDS011;9726;52.198;8.792;2023-03-01T06:42:38;20.47;;;12.07;;
19187;SDS011;9726;52.198;8.792;2023-03-01T06:45:06;23.93;;;12.73;;
19187;SDS011;9726;52.198;8.792;2023-03-01T06:47:34;25.50;;;12.57;;
19187;SDS011;9726;52.198;8.792;2023-03-01T06:50:01;26.43;;;13.17;;
19187;SDS011;9726;52.198;8.792;2023-03-01T06:52:29;25.37;;;12.03;;
19187;SDS011;9726;52.198;8.792;2023-03-01T06:54:56;24.17;;;12.90;;
19187;SDS011;9726;52.198;8.792;2023-03-01T06:57:24;24.13;;;11.93;;
19187;SDS011;9726;52.198;8.792;2023-03-01T06:59:51;26.87;;;12.00;;
19187;SDS011;9726;52.198;8.792;2023-03-01T07:02:19;27.77;;;14.67;;
19187;SDS011;9726;52.198;8.792;2023-03-01T07:04:46;31.53;;;14.67;;
19187;SDS011;9726;52.198;8.792;2023-03-01T07:07:13;38.17;;;17.70;;
19187;SDS011;9726;52.198;8.792;2023-03-01T07:09:41;43.53;;;18.73;;
19187;SDS011;9726;52.198;8.792;2023-03-01T07:12:08;41.77;;;15.60;;
19187;SDS011;9726;52.198;8.792;2023-03-01T07:14:35;34.40;;;14.70;;
19187;SDS011;9726;52.198;8.792;2023-03-01T07:17:03;35.90;;;15.87;;
19187;SDS011;9726;52.198;8.792;2023-03-01T07:19:30;34.83;;;17.87;;
19187;SDS011;9726;52.198;8.792;2023-03-01T07:21:57;28.97;;;17.07;;
19187;SDS011;9726;52.198;8.792;2023-03-01T07:24:25;38.90;;;17.47;;
19187;SDS011;9726;52.198;8.792;2023-03-01T07:26:52;30.47;;;16.43;;
19187;SDS011;9726;52.198;8.792;2023-03-01T07:29:20;34.83;;;16.63;;
19187;SDS011;9726;52.198;8.792;2023-03-01T07:31:47;30.53;;;16.73;;
19187;SDS011;9726;52.198;8.792;2023-03-01T07:34:15;35.77;;;17.90;;
19187;SDS011;9726;52.198;8.792;2023-03-01T07:36:42;36.90;;;18.63;;
19187;SDS011;9726;52.198;8.792;2023-03-01T07:39:11;41.60;;;18.30;;
19187;SDS011;9726;52.198;8.792;2023-03-01T07:41:39;36.43;;;17.70;;
19187;SDS011;9726;52.198;8.792;2023-03-01T07:44:07;44.50;;;19.90;;
19187;SDS011;9726;52.198;8.792;2023-03-01T07:46:35;42.87;;;20.57;;
19187;SDS011;9726;52.198;8.792;2023-03-01T07:49:02;33.43;;;18.40;;
19187;SDS011;9726;52.198;8.792;2023-03-01T07:51:30;40.47;;;20.57;;
19187;SDS011;9726;52.198;8.792;2023-03-01T07:53:58;37.63;;;19.83;;
19187;SDS011;9726;52.198;8.792;2023-03-01T07:56:25;38.57;;;19.23;;
19187;SDS011;9726;52.198;8.792;2023-03-01T07:58:53;36.30;;;19.23;;
19187;SDS011;9726;52.198;8.792;2023-03-01T08:01:21;37.30;;;19.13;;
19187;SDS011;9726;52.198;8.792;2023-03-01T08:03:48;35.53;;;18.20;;
19187;SDS011;9726;52.198;8.792;2023-03-01T08:06:16;34.17;;;18.47;;
19187;SDS011;9726;52.198;8.792;2023-03-01T08:08:45;33.17;;;19.27;;
19187;SDS011;9726;52.198;8.792;2023-03-01T08:11:13;36.27;;;18.67;;
19187;SDS011;9726;52.198;8.792;2023-03-01T08:13:41;36.07;;;19.73;;
19187;SDS011;9726;52.198;8.792;2023-03-01T08:16:10;40.87;;;19.77;;
19187;SDS011;9726;52.198;8.792;2023-03-01T08:18:38;41.97;;;22.57;;
19187;SDS011;9726;52.198;8.792;2023-03-01T08:21:06;33.13;;;18.17;;
19187;SDS011;9726;52.198;8.792;2023-03-01T08:23:34;38.13;;;18.00;;
19187;SDS011;9726;52.198;8.792;2023-03-01T08:26:09;35.63;;;19.00;;
19187;SDS011;9726;52.198;8.792;2023-03-01T08:28:36;35.00;;;18.50;;
19187;SDS011;9726;52.198;8.792;2023-03-01T08:31:14;37.07;;;18.63;;
19187;SDS011;9726;52.198;8.792;2023-03-01T08:33:42;34.90;;;18.87;;
19187;SDS011;9726;52.198;8.792;2023-03-01T08:36:10;35.97;;;18.03;;
19187;SDS011;9726;52.198;8.792;2023-03-01T08:38:37;33.87;;;17.27;;
19187;SDS011;9726;52.198;8.792;2023-03-01T08:41:04;39.07;;;16.70;;
19187;SDS011;9726;52.198;8.792;2023-03-01T08:43:32;32.47;;;16.77;;
19187;SDS011;9726;52.198;8.792;2023-03-01T08:45:59;28.20;;;14.83;;
19187;SDS011;9726;52.198;8.792;2023-03-01T08:48:27;32.70;;;16.17;;
19187;SDS011;9726;52.198;8.792;2023-03-01T08:50:55;32.10;;;16.67;;
19187;SDS011;9726;52.198;8.792;2023-03-01T08:53:22;27.10;;;15.90;;
19187;SDS011;9726;52.198;8.792;2023-03-01T08:55:50;34.57;;;16.10;;
19187;SDS011;9726;52.198;8.792;2023-03-01T08:58:17;30.63;;;16.30;;
19187;SDS011;9726;52.198;8.792;2023-03-01T09:00:44;26.60;;;15.40;;
19187;SDS011;9726;52.198;8.792;2023-03-01T09:03:12;23.73;;;15.23;;
19187;SDS011;9726;52.198;8.792;2023-03-01T09:05:40;25.47;;;13.90;;
19187;SDS011;9726;52.198;8.792;2023-03-01T09:08:07;24.13;;;13.47;;
19187;SDS011;9726;52.198;8.792;2023-03-01T09:10:37;23.77;;;13.40;;
19187;SDS011;9726;52.198;8.792;2023-03-01T09:13:04;17.40;;;10.30;;
19187;SDS011;9726;52.198;8.792;2023-03-01T09:15:32;25.47;;;12.07;;
19187;SDS011;9726;52.198;8.792;2023-03-01T09:18:00;24.40;;;12.00;;
19187;SDS011;9726;52.198;8.792;2023-03-01T09:20:27;22.30;;;12.47;;
19187;SDS011;9726;52.198;8.792;2023-03-01T09:22:55;26.93;;;12.57;;
19187;SDS011;9726;52.198;8.792;2023-03-01T09:25:22;22.63;;;12.67;;
19187;SDS011;9726;52.198;8.792;2023-03-01T09:27:53;23.23;;;12.73;;
19187;SDS011;9726;52.198;8.792;2023-03-01T09:30:21;29.00;;;12.33;;
19187;SDS011;9726;52.198;8.792;2023-03-01T09:32:48;23.27;;;10.50;;
19187;SDS011;9726;52.198;8.792;2023-03-01T09:35:15;24.97;;;10.60;;
19187;SDS011;9726;52.198;8.792;2023-03-01T09:37:43;21.80;;;11.63;;
19187;SDS011;9726;52.198;8.792;2023-03-01T09:40:12;17.00;;;10.80;;
19187;SDS011;9726;52.198;8.792;2023-03-01T09:45:25;20.70;;;11.27;;
19187;SDS011;9726;52.198;8.792;2023-03-01T09:47:53;17.87;;;10.33;;
19187;SDS011;9726;52.198;8.792;2023-03-01T09:50:21;21.27;;;11.83;;
19187;SDS011;9726;52.198;8.792;2023-03-01T09:52:54;23.10;;;12.77;;
19187;SDS011;9726;52.198;8.792;2023-03-01T09:55:36;24.67;;;12.53;;
19187;SDS011;9726;52.198;8.792;2023-03-01T10:03:13;22.10;;;11.83;;
19187;SDS011;9726;52.198;8.792;2023-03-01T10:05:47;18.57;;;10.70;;
19187;SDS011;9726;52.198;8.792;2023-03-01T10:10:52;23.00;;;9.17;;
19187;SDS011;9726;52.198;8.792;2023-03-01T10:13:21;17.17;;;10.00;;
19187;SDS011;9726;52.198;8.792;2023-03-01T10:15:55;18.53;;;9.57;;
19187;SDS011;9726;52.198;8.792;2023-03-01T10:18:28;18.67;;;9.13;;
19187;SDS011;9726;52.198;8.792;2023-03-01T10:20:59;15.57;;;9.93;;
19187;SDS011;9726;52.198;8.792;2023-03-01T10:23:28;15.67;;;8.80;;
19187;SDS011;9726;52.198;8.792;2023-03-01T10:28:29;18.70;;;8.97;;
19187;SDS011;9726;52.198;8.792;2023-03-01T10:30:58;20.47;;;9.17;;
19187;SDS011;9726;52.198;8.792;2023-03-01T10:33:27;17.63;;;7.80;;
19187;SDS011;9726;52.198;8.792;2023-03-01T10:35:56;17.10;;;8.17;;
19187;SDS011;9726;52.198;8.792;2023-03-01T10:38:24;16.33;;;8.30;;
19187;SDS011;9726;52.198;8.792;2023-03-01T10:40:55;18.13;;;8.67;;
19187;SDS011;9726;52.198;8.792;2023-03-01T10:43:24;16.13;;;8.63;;
19187;SDS011;9726;52.198;8.792;2023-03-01T10:45:52;13.23;;;7.73;;
19187;SDS011;9726;52.198;8.792;2023-03-01T10:48:21;19.67;;;8.77;;
19187;SDS011;9726;52.198;8.792;2023-03-01T10:58:26;13.03;;;7.67;;
19187;SDS011;9726;52.198;8.792;2023-03-01T11:00:55;18.43;;;8.27;;
19187;SDS011;9726;52.198;8.792;2023-03-01T11:05:55;20.07;;;8.23;;
19187;SDS011;9726;52.198;8.792;2023-03-01T11:08:31;14.07;;;8.37;;
19187;SDS011;9726;52.198;8.792;2023-03-01T11:11:04;15.73;;;8.13;;
19187;SDS011;9726;52.198;8.792;2023-03-01T11:13:31;17.93;;;8.03;;
19187;SDS011;9726;52.198;8.792;2023-03-01T11:16:04;14.33;;;7.37;;
19187;SDS011;9726;52.198;8.792;2023-03-01T11:18:33;21.67;;;9.23;;
19187;SDS011;9726;52.198;8.792;2023-03-01T11:21:13;19.83;;;8.50;;
19187;SDS011;9726;52.198;8.792;2023-03-01T11:23:41;14.70;;;7.77;;
19187;SDS011;9726;52.198;8.792;2023-03-01T11:26:10;14.30;;;7.83;;
19187;SDS011;9726;52.198;8.792;2023-03-01T11:28:39;18.07;;;8.43;;
19187;SDS011;9726;52.198;8.792;2023-03-01T11:31:08;15.13;;;8.23;;
19187;SDS011;9726;52.198;8.792;2023-03-01T11:33:54;16.70;;;8.53;;
19187;SDS011;9726;52.198;8.792;2023-03-01T11:36:28;14.57;;;8.73;;
19187;SDS011;9726;52.198;8.792;2023-03-01T11:38:57;16.87;;;9.07;;
19187;SDS011;9726;52.198;8.792;2023-03-01T11:41:30;17.07;;;8.37;;
19187;SDS011;9726;52.198;8.792;2023-03-01T11:43:59;17.13;;;9.07;;
19187;SDS011;9726;52.198;8.792;2023-03-01T11:46:36;15.33;;;8.57;;
19187;SDS011;9726;52.198;8.792;2023-03-01T11:57:26;17.73;;;9.40;;
19187;SDS011;9726;52.198;8.792;2023-03-01T12:02:56;12.77;;;6.77;;
19187;SDS011;9726;52.198;8.792;2023-03-01T12:08:03;17.53;;;8.03;;
19187;SDS011;9726;52.198;8.792;2023-03-01T12:10:46;19.77;;;8.20;;
19187;SDS011;9726;52.198;8.792;2023-03-01T12:13:27;20.23;;;8.73;;
19187;SDS011;9726;52.198;8.792;2023-03-01T12:16:24;15.50;;;7.57;;
19187;SDS011;9726;52.198;8.792;2023-03-01T12:19:07;18.83;;;8.13;;
19187;SDS011;9726;52.198;8.792;2023-03-01T12:26:37;15.37;;;7.57;;
19187;SDS011;9726;52.198;8.792;2023-03-01T12:29:16;19.03;;;8.70;;
19187;SDS011;9726;52.198;8.792;2023-03-01T12:34:24;14.33;;;7.87;;
19187;SDS011;9726;52.198;8.792;2023-03-01T12:39:36;14.13;;;8.03;;
19187;SDS011;9726;52.198;8.792;2023-03-01T12:47:35;17.10;;;8.40;;
19187;SDS011;9726;52.198;8.792;2023-03-01T12:50:05;13.13;;;6.77;;
19187;SDS011;9726;52.198;8.792;2023-03-01T12:52:39;10.13;;;6.60;;
19187;SDS011;9726;52.198;8.792;2023-03-01T12:55:13;14.33;;;7.67;;
19187;SDS011;9726;52.198;8.792;2023-03-01T12:57:46;17.67;;;8.37;;
19187;SDS011;9726;52.198;8.792;2023-03-01T13:02:51;17.90;;;7.67;;
19187;SDS011;9726;52.198;8.792;2023-03-01T13:05:34;19.83;;;8.23;;
19187;SDS011;9726;52.198;8.792;2023-03-01T13:08:52;17.90;;;8.20;;
19187;SDS011;9726;52.198;8.792;2023-03-01T13:10:56;18.50;;;8.27;;
19187;SDS011;9726;52.198;8.792;2023-03-01T13:13:26;17.07;;;7.83;;
19187;SDS011;9726;52.198;8.792;2023-03-01T13:15:54;20.70;;;8.63;;
19187;SDS011;9726;52.198;8.792;2023-03-01T13:20:51;12.27;;;6.13;;
19187;SDS011;9726;52.198;8.792;2023-03-01T13:30:56;9.77;;;5.87;;
19187;SDS011;9726;52.198;8.792;2023-03-01T13:35:55;14.43;;;7.53;;
19187;SDS011;9726;52.198;8.792;2023-03-01T13:38:36;18.43;;;8.10;;
19187;SDS011;9726;52.198;8.792;2023-03-01T13:41:04;14.77;;;7.43;;
19187;SDS011;9726;52.198;8.792;2023-03-01T13:43:32;15.57;;;8.03;;
19187;SDS011;9726;52.198;8.792;2023-03-01T13:46:00;14.37;;;7.97;;
19187;SDS011;9726;52.198;8.792;2023-03-01T13:48:29;13.70;;;6.70;;
19187;SDS011;9726;52.198;8.792;2023-03-01T13:50:58;19.13;;;8.13;;
19187;SDS011;9726;52.198;8.792;2023-03-01T13:53:29;13.50;;;6.67;;
19187;SDS011;9726;52.198;8.792;2023-03-01T13:56:09;20.30;;;8.00;;
19187;SDS011;9726;52.198;8.792;2023-03-01T13:58:46;15.37;;;6.47;;
19187;SDS011;9726;52.198;8.792;2023-03-01T14:01:31;10.37;;;4.93;;
19187;SDS011;9726;52.198;8.792;2023-03-01T14:04:00;16.33;;;6.47;;
19187;SDS011;9726;52.198;8.792;2023-03-01T14:06:28;16.77;;;7.13;;
19187;SDS011;9726;52.198;8.792;2023-03-01T14:09:09;11.37;;;6.07;;
19187;SDS011;9726;52.198;8.792;2023-03-01T14:19:27;12.37;;;6.20;;
19187;SDS011;9726;52.198;8.792;2023-03-01T14:24:31;13.53;;;5.57;;
19187;SDS011;9726;52.198;8.792;2023-03-01T14:27:00;11.07;;;5.40;;
19187;SDS011;9726;52.198;8.792;2023-03-01T14:29:35;6.67;;;4.10;;
19187;SDS011;9726;52.198;8.792;2023-03-01T14:34:43;9.83;;;4.73;;
19187;SDS011;9726;52.198;8.792;2023-03-01T14:37:22;7.30;;;4.33;;
19187;SDS011;9726;52.198;8.792;2023-03-01T14:39:51;10.47;;;4.63;;
19187;SDS011;9726;52.198;8.792;2023-03-01T14:42:19;10.33;;;4.97;;
19187;SDS011;9726;52.198;8.792;2023-03-01T14:44:48;11.03;;;5.17;;
19187;SDS011;9726;52.198;8.792;2023-03-01T14:47:30;10.07;;;4.93;;
19187;SDS011;9726;52.198;8.792;2023-03-01T14:50:00;9.57;;;3.90;;
19187;SDS011;9726;52.198;8.792;2023-03-01T14:52:31;11.53;;;4.13;;
19187;SDS011;9726;52.198;8.792;2023-03-01T14:55:01;5.57;;;3.87;;
19187;SDS011;9726;52.198;8.792;2023-03-01T14:57:29;7.93;;;4.63;;
19187;SDS011;9726;52.198;8.792;2023-03-01T14:59:58;6.03;;;3.70;;
19187;SDS011;9726;52.198;8.792;2023-03-01T15:02:27;9.03;;;3.20;;
19187;SDS011;9726;52.198;8.792;2023-03-01T15:04:56;8.23;;;4.03;;
19187;SDS011;9726;52.198;8.792;2023-03-01T15:07:26;9.50;;;5.43;;
19187;SDS011;9726;52.198;8.792;2023-03-01T15:09:55;10.97;;;4.83;;
19187;SDS011;9726;52.198;8.792;2023-03-01T15:14:56;14.43;;;5.00;;
19187;SDS011;9726;52.198;8.792;2023-03-01T15:17:36;10.57;;;4.50;;
19187;SDS011;9726;52.198;8.792;2023-03-01T15:20:05;8.37;;;4.30;;
19187;SDS011;9726;52.198;8.792;2023-03-01T15:22:34;8.17;;;4.07;;
19187;SDS011;9726;52.198;8.792;2023-03-01T15:25:02;6.97;;;4.20;;
19187;SDS011;9726;52.198;8.792;2023-03-01T15:27:29;5.07;;;3.30;;
19187;SDS011;9726;52.198;8.792;2023-03-01T15:29:57;9.83;;;3.53;;
19187;SDS011;9726;52.198;8.792;2023-03-01T15:32:27;7.17;;;4.57;;
19187;SDS011;9726;52.198;8.792;2023-03-01T15:34:55;10.00;;;4.33;;
19187;SDS011;9726;52.198;8.792;2023-03-01T15:40:25;10.40;;;4.20;;
19187;SDS011;9726;52.198;8.792;2023-03-01T15:45:26;6.93;;;4.40;;
19187;SDS011;9726;52.198;8.792;2023-03-01T15:47:56;12.97;;;4.53;;
19187;SDS011;9726;52.198;8.792;2023-03-01T15:50:26;7.13;;;4.43;;
19187;SDS011;9726;52.198;8.792;2023-03-01T15:52:54;8.60;;;4.30;;
19187;SDS011;9726;52.198;8.792;2023-03-01T15:55:23;7.97;;;4.23;;
19187;SDS011;9726;52.198;8.792;2023-03-01T15:57:56;9.90;;;4.90;;
19187;SDS011;9726;52.198;8.792;2023-03-01T16:00:27;7.23;;;4.33;;
19187;SDS011;9726;52.198;8.792;2023-03-01T16:02:55;7.27;;;4.30;;
19187;SDS011;9726;52.198;8.792;2023-03-01T16:05:24;11.30;;;4.77;;
19187;SDS011;9726;52.198;8.792;2023-03-01T16:07:53;8.00;;;4.80;;
19187;SDS011;9726;52.198;8.792;2023-03-01T16:10:21;9.40;;;4.30;;
19187;SDS011;9726;52.198;8.792;2023-03-01T16:12:48;15.00;;;5.17;;
19187;SDS011;9726;52.198;8.792;2023-03-01T16:15:19;7.17;;;4.33;;
19187;SDS011;9726;52.198;8.792;2023-03-01T16:17:47;14.47;;;4.77;;
19187;SDS011;9726;52.198;8.792;2023-03-01T16:20:20;9.73;;;4.43;;
19187;SDS011;9726;52.198;8.792;2023-03-01T16:22:54;10.03;;;4.53;;
19187;SDS011;9726;52.198;8.792;2023-03-01T16:25:22;6.30;;;3.47;;
19187;SDS011;9726;52.198;8.792;2023-03-01T16:27:49;11.63;;;4.73;;
19187;SDS011;9726;52.198;8.792;2023-03-01T16:30:18;9.53;;;4.50;;
19187;SDS011;9726;52.198;8.792;2023-03-01T16:32:46;9.13;;;4.47;;
19187;SDS011;9726;52.198;8.792;2023-03-01T16:35:16;9.90;;;4.90;;
19187;SDS011;9726;52.198;8.792;2023-03-01T16:37:44;7.23;;;3.77;;